createdAt,value
2022-10-11T00:00:09.372Z,68.52
2022-10-11T00:02:35.888Z,68.51
2022-10-11T00:05:02.434Z,68.63
2022-10-11T00:07:28.966Z,68.48
2022-10-11T00:09:55.555Z,68.58
2022-10-11T00:12:22.261Z,68.68
2022-10-11T00:14:48.862Z,68.88
2022-10-11T00:17:15.400Z,69.07
2022-10-11T00:19:41.921Z,68.91
2022-10-11T00:22:08.450Z,69.01
2022-10-11T00:24:35.062Z,68.85
2022-10-11T00:27:01.685Z,68.69
2022-10-11T00:29:28.235Z,68.97
2022-10-11T00:31:54.799Z,69.57
2022-10-11T00:34:21.355Z,69.54
2022-10-11T00:36:48.267Z,69.63
2022-10-11T00:39:14.810Z,69.20
2022-10-11T00:41:41.598Z,69.34
2022-10-11T00:44:13.775Z,69.28
2022-10-11T00:46:45.791Z,69.51
2022-10-11T00:49:19.778Z,69.37
2022-10-11T00:51:53.075Z,69.45
2022-10-11T00:54:25.881Z,69.31
2022-10-11T00:57:06.875Z,69.20
2022-10-11T00:59:39.665Z,69.06
2022-10-11T01:02:08.575Z,68.97
2022-10-11T01:04:35.079Z,69.19
2022-10-11T01:07:02.481Z,69.07
2022-10-11T01:09:29.771Z,69.01
2022-10-11T01:12:00.847Z,68.81
2022-10-11T01:14:46.596Z,69.26
2022-10-11T01:17:30.231Z,69.15
2022-10-11T01:20:14.909Z,68.97
2022-10-11T01:23:26.081Z,69.22
2022-10-11T01:26:26.859Z,69.11
2022-10-11T01:29:29.062Z,69.83
2022-10-11T01:32:25.937Z,69.69
2022-10-11T01:35:07.191Z,69.66
2022-10-11T01:37:43.429Z,68.97
2022-10-11T01:40:22.721Z,69.51
2022-10-11T01:42:50.496Z,69.40
2022-10-11T01:45:19.556Z,69.59
2022-10-11T01:47:46.157Z,69.11
2022-10-11T01:50:42.309Z,70.79
2022-10-11T01:53:26.626Z,70.29
2022-10-11T01:56:14.480Z,70.40
2022-10-11T01:59:15.219Z,69.78
2022-10-11T02:02:03.226Z,70.59
2022-10-11T02:04:32.725Z,70.00
2022-10-11T02:07:07.841Z,69.45
2022-10-11T02:09:44.461Z,69.21
2022-10-11T02:12:15.733Z,69.33
2022-10-11T02:14:48.789Z,68.73
2022-10-11T02:17:23.253Z,68.83
2022-10-11T02:19:56.603Z,68.56
2022-10-11T02:22:33.681Z,68.13
2022-10-11T02:25:08.724Z,68.40
2022-10-11T02:27:40.096Z,69.04
2022-10-11T02:30:08.982Z,69.35
2022-10-11T02:32:41.968Z,69.42
2022-10-11T02:35:10.137Z,68.88
2022-10-11T02:37:41.474Z,68.53
2022-10-11T02:40:35.354Z,68.41
2022-10-11T02:43:11.899Z,68.73
2022-10-11T02:45:48.190Z,68.57
2022-10-11T02:48:15.932Z,68.43
2022-10-11T02:50:43.261Z,68.56
2022-10-11T02:53:10.181Z,68.57
2022-10-11T02:55:37.309Z,68.42
2022-10-11T02:58:03.836Z,68.43
2022-10-11T03:00:30.660Z,68.31
2022-10-11T03:02:57.247Z,68.27
2022-10-11T03:05:23.955Z,68.69
2022-10-11T03:07:50.495Z,68.02
2022-10-11T03:10:19.493Z,67.98
2022-10-11T03:12:46.007Z,67.94
2022-10-11T03:15:12.534Z,68.00
2022-10-11T03:17:39.048Z,68.06
2022-10-11T03:20:06.378Z,67.45
2022-10-11T03:22:32.987Z,67.76
2022-10-11T03:25:03.603Z,67.74
2022-10-11T03:27:31.137Z,67.90
2022-10-11T03:29:57.625Z,67.90
2022-10-11T03:32:24.138Z,67.46
2022-10-11T03:34:50.715Z,67.61
2022-10-11T03:37:17.361Z,67.64
2022-10-11T03:39:43.867Z,67.63
2022-10-11T03:42:10.473Z,67.34
2022-10-11T03:44:37.026Z,67.44
2022-10-11T03:47:03.614Z,67.82
2022-10-11T03:49:30.270Z,67.78
2022-10-11T03:51:56.807Z,67.66
2022-10-11T03:54:23.325Z,67.85
2022-10-11T03:56:49.944Z,67.84
2022-10-11T03:59:16.591Z,67.94
2022-10-11T04:01:43.284Z,67.91
2022-10-11T04:04:10.037Z,67.99
2022-10-11T04:06:36.572Z,67.96
2022-10-11T04:09:03.382Z,68.12
2022-10-11T04:11:29.918Z,68.80
2022-10-11T04:13:56.409Z,68.04
2022-10-11T04:16:23.084Z,68.12
2022-10-11T04:18:49.617Z,68.08
2022-10-11T04:21:16.152Z,68.41
2022-10-11T04:23:42.700Z,67.79
2022-10-11T04:26:09.267Z,68.49
2022-10-11T04:28:36.103Z,67.89
2022-10-11T04:31:02.859Z,68.02
2022-10-11T04:33:29.748Z,68.54
2022-10-11T04:35:57.090Z,68.29
2022-10-11T04:38:24.033Z,68.81
2022-10-11T04:40:50.613Z,68.48
2022-10-11T04:43:18.329Z,68.96
2022-10-11T04:45:45.019Z,69.37
2022-10-11T04:48:11.539Z,68.60
2022-10-11T04:50:38.154Z,68.74
2022-10-11T04:53:07.938Z,68.83
2022-10-11T04:55:34.455Z,69.00
2022-10-11T04:58:01.159Z,68.05
2022-10-11T05:00:27.757Z,68.24
2022-10-11T05:02:54.296Z,68.48
2022-10-11T05:05:20.880Z,68.51
2022-10-11T05:07:47.443Z,67.80
2022-10-11T05:10:14.091Z,68.21
2022-10-11T05:12:40.790Z,68.09
2022-10-11T05:15:08.017Z,68.00
2022-10-11T05:17:34.522Z,67.70
2022-10-11T05:20:01.011Z,67.57
2022-10-11T05:22:27.576Z,68.42
2022-10-11T05:24:54.112Z,69.12
2022-10-11T05:27:20.607Z,68.34
2022-10-11T05:29:47.124Z,68.67
2022-10-11T05:32:13.621Z,69.03
2022-10-11T05:34:40.110Z,69.00
2022-10-11T05:37:06.626Z,69.03
2022-10-11T05:39:33.092Z,69.14
2022-10-11T05:41:59.614Z,69.57
2022-10-11T05:44:26.148Z,69.64
2022-10-11T05:46:52.689Z,69.78
2022-10-11T05:49:19.194Z,69.63
2022-10-11T05:51:45.764Z,69.48
2022-10-11T05:54:12.313Z,69.66
2022-10-11T05:56:38.883Z,69.76
2022-10-11T05:59:05.414Z,69.74
2022-10-11T06:01:32.066Z,70.04
2022-10-11T06:03:58.736Z,70.38
2022-10-11T06:06:25.366Z,70.22
2022-10-11T06:08:52.067Z,70.45
2022-10-11T06:11:22.679Z,70.82
2022-10-11T06:13:49.392Z,70.15
2022-10-11T06:16:16.033Z,69.79
2022-10-11T06:18:42.596Z,70.07
2022-10-11T06:21:09.172Z,69.94
2022-10-11T06:23:35.778Z,69.93
2022-10-11T06:26:06.643Z,69.79
2022-10-11T06:28:35.541Z,69.88
2022-10-11T06:31:05.191Z,69.80
2022-10-11T06:33:31.989Z,69.56
2022-10-11T06:36:09.662Z,69.70
2022-10-11T06:38:39.784Z,69.22
2022-10-11T06:41:10.567Z,68.96
2022-10-11T06:43:37.121Z,69.20
2022-10-11T06:46:04.313Z,69.10
2022-10-11T06:48:31.079Z,67.93
2022-10-11T06:51:01.474Z,68.56
2022-10-11T06:53:28.153Z,68.50
2022-10-11T06:56:02.364Z,68.19
2022-10-11T06:58:29.271Z,68.37
2022-10-11T07:01:10.607Z,67.92
2022-10-11T07:03:37.724Z,67.52
2022-10-11T07:06:08.575Z,68.00
2022-10-11T07:08:36.807Z,67.33
2022-10-11T07:11:09.591Z,67.84
2022-10-11T07:13:37.667Z,67.90
2022-10-11T07:16:08.244Z,67.28
2022-10-11T07:18:35.119Z,66.81
2022-10-11T07:21:07.421Z,67.22
2022-10-11T07:23:34.364Z,67.86
2022-10-11T07:26:01.132Z,67.45
2022-10-11T07:28:28.458Z,66.54
2022-10-11T07:30:55.144Z,66.41
2022-10-11T07:33:21.794Z,66.06
2022-10-11T07:35:49.549Z,66.11
2022-10-11T07:38:16.757Z,66.10
2022-10-11T07:40:45.998Z,65.38
2022-10-11T07:43:13.519Z,65.54
2022-10-11T07:45:41.953Z,65.45
2022-10-11T07:48:09.074Z,65.33
2022-10-11T07:50:36.045Z,66.87
2022-10-11T07:53:03.117Z,67.99
2022-10-11T07:55:33.787Z,66.64
2022-10-11T07:58:00.297Z,66.17
2022-10-11T08:00:26.793Z,65.95
2022-10-11T08:02:53.317Z,66.39
2022-10-11T08:05:19.856Z,66.39
2022-10-11T08:07:46.379Z,66.81
2022-10-11T08:10:12.914Z,66.04
2022-10-11T08:12:39.547Z,65.60
2022-10-11T08:15:06.571Z,65.26
2022-10-11T08:17:33.192Z,64.35
2022-10-11T08:19:59.791Z,63.68
2022-10-11T08:22:26.341Z,64.72
2022-10-11T08:24:52.887Z,64.38
2022-10-11T08:27:21.431Z,63.88
2022-10-11T08:29:48.163Z,63.84
2022-10-11T08:32:14.865Z,63.85
2022-10-11T08:34:41.390Z,64.07
2022-10-11T08:37:08.164Z,62.73
2022-10-11T08:39:34.886Z,63.29
2022-10-11T08:42:23.364Z,63.52
2022-10-11T08:45:10.631Z,63.61
2022-10-11T08:47:44.806Z,63.85
2022-10-11T08:50:19.597Z,62.97
2022-10-11T08:53:10.967Z,63.31
2022-10-11T08:55:52.343Z,63.73
2022-10-11T08:58:25.709Z,63.25
2022-10-11T09:00:56.367Z,64.64
2022-10-11T09:03:37.055Z,65.17
2022-10-11T09:06:25.368Z,65.16
2022-10-11T09:09:16.157Z,65.56
2022-10-11T09:12:04.218Z,65.26
2022-10-11T09:14:38.939Z,65.04
2022-10-11T09:17:33.858Z,65.00
2022-10-11T09:20:24.138Z,64.38
2022-10-11T09:23:13.105Z,64.79
2022-10-11T09:25:54.845Z,63.33
2022-10-11T09:28:35.493Z,64.28
2022-10-11T09:31:02.312Z,63.79
2022-10-11T09:33:35.347Z,64.78
2022-10-11T09:36:16.256Z,65.25
2022-10-11T09:39:06.478Z,66.91
2022-10-11T09:41:51.383Z,66.70
2022-10-11T09:44:28.288Z,67.18
2022-10-11T09:46:56.899Z,66.40
2022-10-11T09:49:37.141Z,66.77
2022-10-11T09:52:11.193Z,66.99
2022-10-11T09:54:40.016Z,66.73
2022-10-11T09:57:21.312Z,66.35
2022-10-11T10:00:18.745Z,66.16
2022-10-11T10:02:54.477Z,66.00
2022-10-11T10:05:32.839Z,65.49
2022-10-11T10:08:04.076Z,65.58
2022-10-11T10:10:31.147Z,66.65
2022-10-11T10:13:03.890Z,64.87
2022-10-11T10:15:47.415Z,66.09
2022-10-11T10:18:22.844Z,65.76
2022-10-11T10:20:58.802Z,65.15
2022-10-11T10:23:32.434Z,65.43
2022-10-11T10:26:17.478Z,65.94
2022-10-11T10:29:03.727Z,65.04
2022-10-11T10:31:49.196Z,65.33
2022-10-11T10:34:46.663Z,64.22
2022-10-11T10:37:26.626Z,65.44
2022-10-11T10:40:13.050Z,65.36
2022-10-11T10:42:40.007Z,65.67
2022-10-11T10:45:18.643Z,64.95
2022-10-11T10:48:10.668Z,65.21
2022-10-11T10:51:01.408Z,64.96
2022-10-11T10:53:38.106Z,63.97
2022-10-11T10:56:12.015Z,64.23
2022-10-11T10:58:54.253Z,63.82
2022-10-11T11:01:30.521Z,64.70
2022-10-11T11:04:24.725Z,65.07
2022-10-11T11:07:11.619Z,65.21
2022-10-11T11:09:52.797Z,64.29
2022-10-11T11:12:22.303Z,64.19
2022-10-11T11:15:04.227Z,63.41
2022-10-11T11:17:45.162Z,63.02
2022-10-11T11:20:23.788Z,62.58
2022-10-11T11:23:32.047Z,63.89
2022-10-11T11:26:20.406Z,64.33
2022-10-11T11:29:22.354Z,63.79
2022-10-11T11:32:30.900Z,63.66
2022-10-11T11:35:09.611Z,62.47
2022-10-11T11:37:41.376Z,62.36
2022-10-11T11:40:16.717Z,61.78
2022-10-11T11:42:51.469Z,60.53
2022-10-11T11:45:30.842Z,60.98
2022-10-11T11:48:13.193Z,61.43
2022-10-11T11:50:46.260Z,61.17
2022-10-11T11:53:18.735Z,61.59
2022-10-11T11:55:50.644Z,61.28
2022-10-11T11:58:50.073Z,60.77
2022-10-11T12:01:47.255Z,60.03
2022-10-11T12:04:31.343Z,61.18
2022-10-11T12:07:17.738Z,60.54
2022-10-11T12:09:49.788Z,59.41
2022-10-11T12:12:37.243Z,58.96
2022-10-11T12:15:19.600Z,59.81
2022-10-11T12:17:54.988Z,59.29
2022-10-11T12:20:26.131Z,60.41
2022-10-11T12:22:56.082Z,59.29
2022-10-11T12:25:22.546Z,59.04
2022-10-11T12:27:53.619Z,58.40
2022-10-11T12:30:45.048Z,58.36
2022-10-11T12:33:15.932Z,57.88
2022-10-11T12:35:54.589Z,58.17
2022-10-11T12:38:28.353Z,57.26
2022-10-11T12:40:57.215Z,56.28
2022-10-11T12:43:55.122Z,55.37
2022-10-11T12:46:30.395Z,54.89
2022-10-11T12:49:26.811Z,54.36
2022-10-11T12:52:17.803Z,54.24
2022-10-11T12:54:44.328Z,54.36
2022-10-11T12:57:32.430Z,53.61
2022-10-11T13:00:28.508Z,53.44
2022-10-11T13:03:05.224Z,53.60
2022-10-11T13:05:48.680Z,53.70
2022-10-11T13:08:32.387Z,52.91
2022-10-11T13:11:03.414Z,53.63
2022-10-11T13:13:40.257Z,54.95
2022-10-11T13:16:13.306Z,54.95
2022-10-11T13:18:45.610Z,54.39
2022-10-11T13:21:25.620Z,54.88
2022-10-11T13:24:00.142Z,54.99
2022-10-11T13:26:30.289Z,54.33
2022-10-11T13:28:58.317Z,54.55
2022-10-11T13:31:25.081Z,54.20
2022-10-11T13:33:55.400Z,53.93
2022-10-11T13:36:26.094Z,53.32
2022-10-11T13:38:59.058Z,53.05
2022-10-11T13:41:31.972Z,53.43
2022-10-11T13:44:00.377Z,52.94
2022-10-11T13:46:30.601Z,52.91
2022-10-11T13:49:31.150Z,53.58
2022-10-11T13:52:03.056Z,52.56
2022-10-11T13:54:55.546Z,52.05
2022-10-11T13:57:31.478Z,51.91
2022-10-11T13:59:58.268Z,51.16
2022-10-11T14:02:29.260Z,50.78
2022-10-11T14:04:55.738Z,50.16
2022-10-11T14:07:33.085Z,49.68
2022-10-11T14:09:59.807Z,49.95
2022-10-11T14:12:40.480Z,50.19
2022-10-11T14:15:33.591Z,49.97
2022-10-11T14:18:01.962Z,50.29
2022-10-11T14:20:38.989Z,49.76
2022-10-11T14:23:07.011Z,49.53
2022-10-11T14:25:34.500Z,49.65
2022-10-11T14:28:01.099Z,49.93
2022-10-11T14:30:28.645Z,50.03
2022-10-11T14:32:59.349Z,50.54
2022-10-11T14:35:29.658Z,50.98
2022-10-11T14:37:56.241Z,50.31
2022-10-11T14:40:25.886Z,50.66
2022-10-11T14:42:52.477Z,50.86
2022-10-11T14:45:19.944Z,50.17
2022-10-11T14:47:46.678Z,50.69
2022-10-11T14:50:27.449Z,50.01
2022-10-11T14:52:54.717Z,49.67
2022-10-11T14:55:21.224Z,49.84
2022-10-11T14:57:55.215Z,50.04
2022-10-11T15:00:26.077Z,49.12
2022-10-11T15:02:53.296Z,48.54
2022-10-11T15:05:21.150Z,48.83
2022-10-11T15:07:48.549Z,50.19
2022-10-11T15:10:22.657Z,49.72
2022-10-11T15:12:53.924Z,50.32
2022-10-11T15:15:23.763Z,50.23
2022-10-11T15:17:53.776Z,50.51
2022-10-11T15:20:27.778Z,50.62
2022-10-11T15:23:00.028Z,51.72
2022-10-11T15:25:27.990Z,52.16
2022-10-11T15:27:54.637Z,51.92
2022-10-11T15:30:25.153Z,50.78
2022-10-11T15:32:52.091Z,51.10
2022-10-11T15:35:19.552Z,51.10
2022-10-11T15:37:46.718Z,50.65
2022-10-11T15:40:23.719Z,50.89
2022-10-11T15:42:51.509Z,52.37
2022-10-11T15:45:19.431Z,52.36
2022-10-11T15:47:46.121Z,52.66
2022-10-11T15:50:12.536Z,51.95
2022-10-11T15:52:39.162Z,52.86
2022-10-11T15:55:05.782Z,52.79
2022-10-11T15:57:32.233Z,52.85
2022-10-11T15:59:58.712Z,52.51
2022-10-11T16:02:25.301Z,52.82
2022-10-11T16:04:53.072Z,54.41
2022-10-11T16:07:19.557Z,54.65
2022-10-11T16:09:46.027Z,54.05
2022-10-11T16:12:12.605Z,54.08
2022-10-11T16:14:42.598Z,53.35
2022-10-11T16:17:11.533Z,53.55
2022-10-11T16:19:38.004Z,54.18
2022-10-11T16:22:04.444Z,55.64
2022-10-11T16:24:30.983Z,55.94
2022-10-11T16:26:57.444Z,56.19
2022-10-11T16:29:24.053Z,56.85
2022-10-11T16:31:50.523Z,56.31
2022-10-11T16:34:17.122Z,56.30
2022-10-11T16:36:43.824Z,57.93
2022-10-11T16:39:16.596Z,58.29
2022-10-11T16:41:43.100Z,58.83
2022-10-11T16:44:14.962Z,59.20
2022-10-11T16:46:42.147Z,60.69
2022-10-11T16:49:08.741Z,63.54
2022-10-11T16:51:35.235Z,65.58
2022-10-11T16:54:01.881Z,66.89
2022-10-11T16:56:28.636Z,67.84
2022-10-11T16:58:55.914Z,68.38
2022-10-11T17:01:22.967Z,69.13
2022-10-11T17:03:50.230Z,69.00
2022-10-11T17:06:17.123Z,68.71
2022-10-11T17:08:43.791Z,68.88
2022-10-11T17:11:10.556Z,69.03
2022-10-11T17:13:37.017Z,67.83
2022-10-11T17:16:04.063Z,67.83
2022-10-11T17:18:32.358Z,67.76
2022-10-11T17:21:07.934Z,66.51
2022-10-11T17:23:35.494Z,66.26
2022-10-11T17:26:10.077Z,66.15
2022-10-11T17:28:38.969Z,66.86
2022-10-11T17:31:05.937Z,68.26
2022-10-11T17:33:33.120Z,68.67
2022-10-11T17:36:00.598Z,68.09
2022-10-11T17:38:27.654Z,68.68
2022-10-11T17:41:01.452Z,68.04
2022-10-11T17:43:28.576Z,68.65
2022-10-11T17:45:59.269Z,69.96
2022-10-11T17:48:28.067Z,70.30
2022-10-11T17:50:55.014Z,71.54
2022-10-11T17:53:21.660Z,71.67
2022-10-11T17:55:48.166Z,74.06
2022-10-11T17:58:14.659Z,73.31
2022-10-11T18:00:41.186Z,73.56
2022-10-11T18:03:07.660Z,72.74
2022-10-11T18:05:39.861Z,73.42
2022-10-11T18:08:07.211Z,70.95
2022-10-11T18:10:35.334Z,69.84
2022-10-11T18:13:06.327Z,68.78
2022-10-11T18:15:33.222Z,67.54
2022-10-11T18:18:00.023Z,66.66
2022-10-11T18:20:26.633Z,67.19
2022-10-11T18:22:53.190Z,68.45
2022-10-11T18:25:20.208Z,67.35
2022-10-11T18:27:46.658Z,66.95
2022-10-11T18:30:19.701Z,66.44
2022-10-11T18:32:46.201Z,66.07
2022-10-11T18:35:12.723Z,65.83
2022-10-11T18:37:39.216Z,66.45
2022-10-11T18:40:06.163Z,67.81
2022-10-11T18:42:32.625Z,68.10
2022-10-11T18:44:59.136Z,69.03
2022-10-11T18:47:25.611Z,69.20
2022-10-11T18:49:52.129Z,68.99
2022-10-11T18:52:18.598Z,69.26
2022-10-11T18:54:45.149Z,68.72
2022-10-11T18:57:11.716Z,68.50
2022-10-11T18:59:38.158Z,68.59
2022-10-11T19:02:04.666Z,70.40
2022-10-11T19:04:31.146Z,70.31
2022-10-11T19:06:57.636Z,69.62
2022-10-11T19:09:24.207Z,69.70
2022-10-11T19:11:52.860Z,68.96
2022-10-11T19:14:22.043Z,68.66
2022-10-11T19:16:50.304Z,68.09
2022-10-11T19:19:19.708Z,67.31
2022-10-11T19:21:46.193Z,66.60
2022-10-11T19:24:12.667Z,66.70
2022-10-11T19:26:40.637Z,66.08
2022-10-11T19:29:08.485Z,67.28
2022-10-11T19:31:40.440Z,67.57
2022-10-11T19:34:06.928Z,67.97
2022-10-11T19:36:36.590Z,67.91
2022-10-11T19:39:05.327Z,68.37
2022-10-11T19:41:32.713Z,67.63
2022-10-11T19:43:59.193Z,67.28
2022-10-11T19:46:44.855Z,67.64
2022-10-11T19:49:14.362Z,67.67
2022-10-11T19:51:41.385Z,67.38
2022-10-11T19:54:11.531Z,68.87
2022-10-11T19:56:38.002Z,68.89
2022-10-11T19:59:04.862Z,68.40
2022-10-11T20:01:31.791Z,70.49
2022-10-11T20:04:07.035Z,69.93
2022-10-11T20:06:38.475Z,70.06
2022-10-11T20:09:28.114Z,70.56
2022-10-11T20:11:53.581Z,70.22
2022-10-11T20:14:20.446Z,71.30
2022-10-11T20:16:50.035Z,72.39
2022-10-11T20:19:17.280Z,71.14
2022-10-11T20:21:44.150Z,71.54
2022-10-11T20:24:10.616Z,72.34
2022-10-11T20:26:37.091Z,72.86
2022-10-11T20:29:03.560Z,71.87
2022-10-11T20:31:32.708Z,72.22
2022-10-11T20:34:01.571Z,71.17
2022-10-11T20:36:29.910Z,72.13
2022-10-11T20:38:58.021Z,71.23
2022-10-11T20:41:27.586Z,72.62
2022-10-11T20:43:56.581Z,71.17
2022-10-11T20:46:26.089Z,70.38
2022-10-11T20:49:01.143Z,69.80
2022-10-11T20:51:30.060Z,69.54
2022-10-11T20:53:56.716Z,69.82
2022-10-11T20:56:23.797Z,69.23
2022-10-11T20:58:59.714Z,68.23
2022-10-11T21:01:31.552Z,68.00
2022-10-11T21:03:59.757Z,68.55
2022-10-11T21:06:27.206Z,67.61
2022-10-11T21:08:58.214Z,67.52
2022-10-11T21:11:26.621Z,66.78
2022-10-11T21:13:58.348Z,66.61
2022-10-11T21:16:28.169Z,65.96
2022-10-11T21:18:57.119Z,66.41
2022-10-11T21:21:24.256Z,66.77
2022-10-11T21:23:55.495Z,66.07
2022-10-11T21:26:22.133Z,66.27
2022-10-11T21:28:49.164Z,66.17
2022-10-11T21:31:18.184Z,66.96
2022-10-11T21:33:44.768Z,67.03
2022-10-11T21:36:17.634Z,66.98
2022-10-11T21:38:44.739Z,67.01
2022-10-11T21:41:17.487Z,66.55
2022-10-11T21:43:44.362Z,66.45
2022-10-11T21:46:16.311Z,66.54
2022-10-11T21:48:42.811Z,66.22
2022-10-11T21:51:15.434Z,65.94
2022-10-11T21:53:41.925Z,65.80
2022-10-11T21:56:08.906Z,65.72
2022-10-11T21:58:35.413Z,66.60
2022-10-11T22:01:01.991Z,66.53
2022-10-11T22:03:28.514Z,66.43
2022-10-11T22:05:54.980Z,66.27
2022-10-11T22:08:22.321Z,66.50
2022-10-11T22:10:54.602Z,66.26
2022-10-11T22:13:21.078Z,66.70
2022-10-11T22:15:47.546Z,66.50
2022-10-11T22:18:14.086Z,66.66
2022-10-11T22:20:40.735Z,66.75
2022-10-11T22:23:07.344Z,67.12
2022-10-11T22:25:39.810Z,67.87
2022-10-11T22:28:06.679Z,68.01
2022-10-11T22:30:33.262Z,68.63
2022-10-11T22:32:59.796Z,68.57
2022-10-11T22:35:26.589Z,68.80
2022-10-11T22:37:53.226Z,70.36
2022-10-11T22:40:20.556Z,69.88
2022-10-11T22:42:47.193Z,70.71
2022-10-11T22:45:13.659Z,71.62
2022-10-11T22:47:40.190Z,73.03
2022-10-11T22:50:06.839Z,72.00
2022-10-11T22:52:33.332Z,71.91
2022-10-11T22:55:03.026Z,71.66
2022-10-11T22:57:29.523Z,72.91
2022-10-11T22:59:58.591Z,74.34
2022-10-11T23:02:25.232Z,74.02
2022-10-11T23:04:54.030Z,73.86
2022-10-11T23:07:20.511Z,75.07
2022-10-11T23:09:48.928Z,76.28
2022-10-11T23:12:15.433Z,76.53
2022-10-11T23:14:42.074Z,76.33
2022-10-11T23:17:08.609Z,76.42
2022-10-11T23:19:35.118Z,75.88
2022-10-11T23:22:01.578Z,75.84
2022-10-11T23:24:28.036Z,76.26
2022-10-11T23:26:54.670Z,76.82
2022-10-11T23:29:21.130Z,78.05
2022-10-11T23:31:47.619Z,78.11
2022-10-11T23:34:14.205Z,77.50
2022-10-11T23:36:41.225Z,78.90
2022-10-11T23:39:07.746Z,78.50
2022-10-11T23:41:34.215Z,79.21
2022-10-11T23:44:00.678Z,80.75
2022-10-11T23:46:27.297Z,79.50
2022-10-11T23:48:53.794Z,78.15
2022-10-11T23:51:20.292Z,77.78
2022-10-11T23:53:46.966Z,78.63
2022-10-11T23:56:15.439Z,77.58
2022-10-11T23:58:41.939Z,76.99
